createdAt,value
2022-12-11T00:02:04.772Z,8.30
2022-12-11T00:04:32.277Z,8.40
2022-12-11T00:06:59.026Z,8.73
2022-12-11T00:09:25.855Z,9.65
2022-12-11T00:11:52.653Z,8.40
2022-12-11T00:14:19.364Z,8.50
2022-12-11T00:16:47.982Z,8.68
2022-12-11T00:19:15.566Z,8.15
2022-12-11T00:21:42.506Z,9.60
2022-12-11T00:24:09.306Z,9.43
2022-12-11T00:26:36.046Z,8.38
2022-12-11T00:29:02.877Z,8.82
2022-12-11T00:31:29.672Z,8.30
2022-12-11T00:33:56.457Z,8.70
2022-12-11T00:36:26.902Z,8.80
2022-12-11T00:38:55.346Z,8.95
2022-12-11T00:41:22.353Z,8.63
2022-12-11T00:43:49.298Z,9.00
2022-12-11T00:46:16.481Z,10.10
2022-12-11T00:48:43.306Z,9.85
2022-12-11T00:51:10.841Z,9.18
2022-12-11T00:53:38.755Z,8.90
2022-12-11T00:56:17.220Z,9.75
2022-12-11T00:58:44.620Z,8.90
2022-12-11T01:01:15.624Z,8.73
2022-12-11T01:03:42.634Z,9.60
2022-12-11T01:06:14.237Z,9.73
2022-12-11T01:08:44.205Z,9.35
2022-12-11T01:11:20.380Z,9.38
2022-12-11T01:13:47.181Z,9.70
2022-12-11T01:16:15.950Z,9.57
2022-12-11T01:18:43.994Z,10.50
2022-12-11T01:21:13.380Z,9.45
2022-12-11T01:23:40.814Z,10.05
2022-12-11T01:26:15.476Z,9.85
2022-12-11T01:28:42.783Z,10.73
2022-12-11T01:31:11.030Z,10.05
2022-12-11T01:33:38.972Z,9.77
2022-12-11T01:36:14.420Z,11.45
2022-12-11T01:38:41.642Z,10.13
2022-12-11T01:41:09.220Z,9.23
2022-12-11T01:43:55.826Z,11.02
2022-12-11T01:46:22.624Z,9.65
2022-12-11T01:48:49.390Z,10.65
2022-12-11T01:51:16.680Z,11.00
2022-12-11T01:53:46.470Z,10.63
2022-12-11T01:56:13.326Z,11.32
2022-12-11T01:58:48.090Z,11.80
2022-12-11T02:01:19.153Z,11.10
2022-12-11T02:03:45.899Z,11.77
2022-12-11T02:06:48.859Z,11.20
2022-12-11T02:09:21.048Z,11.77
2022-12-11T02:12:00.088Z,12.05
2022-12-11T02:14:41.573Z,11.40
2022-12-11T02:17:20.248Z,10.93
2022-12-11T02:19:55.810Z,11.00
2022-12-11T02:22:41.641Z,10.98
2022-12-11T02:25:15.108Z,10.88
2022-12-11T02:27:46.316Z,10.73
2022-12-11T02:30:15.997Z,13.52
2022-12-11T02:32:58.372Z,12.13
2022-12-11T02:35:35.062Z,10.00
2022-12-11T02:38:09.544Z,10.25
2022-12-11T02:40:39.528Z,10.32
2022-12-11T02:43:10.552Z,11.05
2022-12-11T02:45:39.375Z,10.88
2022-12-11T02:48:08.586Z,10.55
2022-12-11T02:50:38.123Z,11.23
2022-12-11T02:53:06.573Z,11.30
2022-12-11T02:55:34.047Z,10.98
2022-12-11T02:58:16.020Z,10.63
2022-12-11T03:00:44.867Z,11.10
2022-12-11T03:03:12.432Z,10.52
2022-12-11T03:05:39.897Z,9.95
2022-12-11T03:08:06.743Z,10.70
2022-12-11T03:10:33.662Z,10.50
2022-12-11T03:13:00.842Z,10.95
2022-12-11T03:15:36.664Z,11.88
2022-12-11T03:18:15.242Z,10.85
2022-12-11T03:20:48.028Z,10.98
2022-12-11T03:23:21.672Z,10.82
2022-12-11T03:25:57.981Z,10.90
2022-12-11T03:28:29.942Z,10.90
2022-12-11T03:30:57.227Z,11.52
2022-12-11T03:33:28.173Z,10.10
2022-12-11T03:35:57.726Z,11.55
2022-12-11T03:38:28.766Z,10.98
2022-12-11T03:40:58.859Z,10.77
2022-12-11T03:43:26.921Z,11.93
2022-12-11T03:45:54.482Z,11.15
2022-12-11T03:48:21.601Z,10.82
2022-12-11T03:50:49.089Z,10.52
2022-12-11T03:53:17.015Z,10.48
2022-12-11T03:55:43.871Z,10.60
2022-12-11T03:58:11.082Z,10.68
2022-12-11T04:00:38.134Z,11.00
2022-12-11T04:03:14.453Z,10.20
2022-12-11T04:05:49.354Z,10.02
2022-12-11T04:08:17.589Z,10.55
2022-12-11T04:10:44.645Z,9.15
2022-12-11T04:13:11.637Z,10.60
2022-12-11T04:15:40.364Z,9.85
2022-12-11T04:18:29.166Z,10.23
2022-12-11T04:21:14.954Z,10.38
2022-12-11T04:24:00.399Z,10.80
2022-12-11T04:26:27.520Z,10.80
2022-12-11T04:28:54.373Z,10.25
2022-12-11T04:31:22.557Z,9.55
2022-12-11T04:33:49.890Z,9.35
2022-12-11T04:36:17.105Z,9.75
2022-12-11T04:38:43.760Z,10.23
2022-12-11T04:41:14.601Z,9.40
2022-12-11T04:43:41.974Z,10.60
2022-12-11T04:46:11.234Z,9.95
2022-12-11T04:48:38.749Z,10.30
2022-12-11T04:51:06.114Z,10.50
2022-12-11T04:53:33.316Z,9.98
2022-12-11T04:56:00.040Z,10.15
2022-12-11T04:58:27.855Z,10.30
2022-12-11T05:00:54.684Z,10.73
2022-12-11T05:03:21.624Z,10.70
2022-12-11T05:05:53.153Z,10.43
2022-12-11T05:08:20.866Z,10.80
2022-12-11T05:10:58.509Z,10.25
2022-12-11T05:13:25.606Z,10.52
2022-12-11T05:15:52.353Z,10.90
2022-12-11T05:18:19.283Z,11.20
2022-12-11T05:20:45.947Z,10.30
2022-12-11T05:23:13.104Z,10.02
2022-12-11T05:25:39.891Z,10.73
2022-12-11T05:28:06.808Z,12.02
2022-12-11T05:30:33.584Z,12.00
2022-12-11T05:33:00.504Z,11.77
2022-12-11T05:35:27.376Z,11.50
2022-12-11T05:37:54.159Z,11.00
2022-12-11T05:40:21.657Z,12.35
2022-12-11T05:42:48.558Z,12.00
2022-12-11T05:45:15.525Z,12.00
2022-12-11T05:47:42.492Z,12.38
2022-12-11T05:50:10.999Z,11.93
2022-12-11T05:52:37.844Z,11.40
2022-12-11T05:55:04.796Z,11.05
2022-12-11T05:57:31.635Z,12.95
2022-12-11T05:59:58.324Z,11.73
2022-12-11T06:02:25.298Z,11.52
2022-12-11T06:04:52.185Z,11.80
2022-12-11T06:07:18.938Z,12.05
2022-12-11T06:09:45.656Z,11.77
2022-12-11T06:12:12.438Z,11.43
2022-12-11T06:14:39.425Z,13.02
2022-12-11T06:17:06.205Z,12.40
2022-12-11T06:19:36.756Z,11.73
2022-12-11T06:22:04.318Z,12.68
2022-12-11T06:24:31.183Z,12.90
2022-12-11T06:26:58.346Z,13.07
2022-12-11T06:29:25.110Z,11.98
2022-12-11T06:31:51.900Z,11.73
2022-12-11T06:34:18.799Z,11.77
2022-12-11T06:36:45.488Z,12.38
2022-12-11T06:39:12.333Z,12.32
2022-12-11T06:41:39.161Z,12.48
2022-12-11T06:44:05.899Z,12.27
2022-12-11T06:46:32.590Z,13.02
2022-12-11T06:48:59.462Z,13.00
2022-12-11T06:51:26.482Z,12.93
2022-12-11T06:53:55.616Z,13.00
2022-12-11T06:56:24.055Z,12.95
2022-12-11T06:58:51.998Z,14.05
2022-12-11T07:01:22.967Z,13.52
2022-12-11T07:03:50.082Z,12.65
2022-12-11T07:06:16.836Z,13.70
2022-12-11T07:08:43.845Z,13.13
2022-12-11T07:11:12.842Z,13.20
2022-12-11T07:13:40.514Z,14.18
2022-12-11T07:16:11.085Z,13.52
2022-12-11T07:18:43.867Z,12.85
2022-12-11T07:21:13.076Z,12.48
2022-12-11T07:23:40.290Z,12.95
2022-12-11T07:26:09.708Z,13.27
2022-12-11T07:28:36.673Z,12.15
2022-12-11T07:31:11.157Z,13.93
2022-12-11T07:33:37.964Z,11.55
2022-12-11T07:36:06.665Z,13.73
2022-12-11T07:38:33.824Z,12.48
2022-12-11T07:41:08.311Z,12.48
2022-12-11T07:43:35.758Z,12.85
2022-12-11T07:46:03.990Z,11.35
2022-12-11T07:48:31.441Z,12.30
2022-12-11T07:51:26.505Z,12.20
2022-12-11T07:53:55.323Z,13.32
2022-12-11T07:56:22.454Z,12.23
2022-12-11T07:58:50.192Z,11.77
2022-12-11T08:01:29.226Z,12.93
2022-12-11T08:03:57.012Z,12.57
2022-12-11T08:06:29.689Z,12.63
2022-12-11T08:08:57.778Z,13.98
2022-12-11T08:11:25.403Z,12.75
2022-12-11T08:13:52.599Z,12.20
2022-12-11T08:16:20.090Z,11.98
2022-12-11T08:18:47.770Z,12.90
2022-12-11T08:21:20.662Z,11.57
2022-12-11T08:23:48.211Z,12.50
2022-12-11T08:26:19.108Z,11.73
2022-12-11T08:28:45.936Z,11.68
2022-12-11T08:31:14.592Z,12.43
2022-12-11T08:33:42.104Z,12.32
2022-12-11T08:36:11.419Z,12.02
2022-12-11T08:38:38.326Z,11.35
2022-12-11T08:41:19.389Z,11.55
2022-12-11T08:43:46.914Z,12.02
2022-12-11T08:46:14.164Z,11.75
2022-12-11T08:48:42.245Z,11.63
2022-12-11T08:51:12.913Z,11.55
2022-12-11T08:53:40.346Z,10.93
2022-12-11T08:56:14.816Z,11.05
2022-12-11T08:58:42.451Z,12.18
2022-12-11T09:01:18.189Z,11.50
2022-12-11T09:03:45.154Z,10.60
2022-12-11T09:06:14.025Z,11.52
2022-12-11T09:08:42.554Z,11.20
2022-12-11T09:11:14.569Z,11.88
2022-12-11T09:13:42.074Z,11.68
2022-12-11T09:16:11.565Z,11.57
2022-12-11T09:18:39.307Z,11.70
2022-12-11T09:21:08.916Z,11.18
2022-12-11T09:23:38.861Z,11.60
2022-12-11T09:26:07.025Z,10.93
2022-12-11T09:28:34.656Z,11.73
2022-12-11T09:31:01.893Z,12.00
2022-12-11T09:33:28.775Z,9.82
2022-12-11T09:36:02.861Z,11.30
2022-12-11T09:38:33.125Z,11.65
2022-12-11T09:41:00.344Z,10.38
2022-12-11T09:43:50.442Z,10.23
2022-12-11T09:46:24.709Z,10.13
2022-12-11T09:48:53.737Z,9.68
2022-12-11T09:51:28.345Z,10.13
2022-12-11T09:53:56.772Z,10.38
2022-12-11T09:56:50.862Z,9.80
2022-12-11T09:59:33.175Z,10.05
2022-12-11T10:02:26.557Z,9.23
2022-12-11T10:05:17.853Z,9.18
2022-12-11T10:07:52.341Z,9.95
2022-12-11T10:10:31.563Z,9.57
2022-12-11T10:13:04.444Z,9.48
2022-12-11T10:16:02.189Z,9.77
2022-12-11T10:18:29.997Z,10.07
2022-12-11T10:20:57.236Z,9.45
2022-12-11T10:23:57.321Z,10.98
2022-12-11T10:26:25.354Z,9.82
2022-12-11T10:28:52.134Z,9.23
2022-12-11T10:31:56.122Z,10.82
2022-12-11T10:34:26.100Z,9.82
2022-12-11T10:37:00.181Z,9.13
2022-12-11T10:39:27.769Z,10.80
2022-12-11T10:41:55.735Z,10.65
2022-12-11T10:44:28.114Z,10.70
2022-12-11T10:47:09.732Z,10.52
2022-12-11T10:49:38.244Z,9.00
2022-12-11T10:52:36.006Z,9.80
2022-12-11T10:55:06.417Z,10.23
2022-12-11T10:57:35.587Z,10.10
2022-12-11T11:00:05.091Z,10.20
2022-12-11T11:02:34.448Z,9.02
2022-12-11T11:05:12.762Z,9.95
2022-12-11T11:07:40.018Z,8.85
2022-12-11T11:10:06.917Z,9.50
2022-12-11T11:12:50.309Z,10.40
2022-12-11T11:15:25.248Z,9.43
2022-12-11T11:17:56.317Z,9.93
2022-12-11T11:20:28.549Z,9.32
2022-12-11T11:23:12.244Z,9.02
2022-12-11T11:25:39.164Z,11.77
2022-12-11T11:28:11.390Z,10.52
2022-12-11T11:30:42.429Z,12.60
2022-12-11T11:33:20.485Z,11.00
2022-12-11T11:36:04.743Z,9.68
2022-12-11T11:38:39.815Z,11.20
2022-12-11T11:41:15.767Z,12.23
2022-12-11T11:43:51.670Z,11.20
2022-12-11T11:46:29.895Z,12.32
2022-12-11T11:49:25.152Z,12.80
2022-12-11T11:52:00.064Z,9.63
2022-12-11T11:54:54.799Z,8.98
2022-12-11T11:57:27.811Z,9.73
2022-12-11T11:59:57.546Z,9.25
2022-12-11T12:02:24.294Z,10.15
2022-12-11T12:04:52.150Z,9.32
2022-12-11T12:07:47.821Z,9.50
2022-12-11T12:10:27.001Z,8.40
2022-12-11T12:13:44.716Z,9.32
2022-12-11T12:16:43.773Z,9.05
2022-12-11T12:19:07.965Z,9.70
2022-12-11T12:21:36.966Z,9.45
2022-12-11T12:24:31.376Z,9.07
2022-12-11T12:27:50.878Z,8.85
2022-12-11T12:30:16.115Z,8.90
2022-12-11T12:33:09.764Z,9.15
2022-12-11T12:35:38.977Z,9.10
2022-12-11T12:38:06.991Z,8.73
2022-12-11T12:40:41.358Z,9.38
2022-12-11T12:43:29.537Z,8.93
2022-12-11T12:46:04.508Z,9.05
2022-12-11T12:48:31.581Z,8.27
2022-12-11T12:50:58.900Z,8.85
2022-12-11T12:53:29.529Z,9.05
2022-12-11T12:55:56.847Z,8.93
2022-12-11T12:58:35.957Z,9.07
2022-12-11T13:01:14.265Z,8.68
2022-12-11T13:04:04.171Z,8.40
2022-12-11T13:06:47.875Z,8.40
2022-12-11T13:09:24.448Z,9.23
2022-12-11T13:11:57.880Z,13.25
2022-12-11T13:14:30.347Z,13.50
2022-12-11T13:17:28.853Z,11.40
2022-12-11T13:20:18.044Z,10.27
2022-12-11T13:23:19.139Z,13.40
2022-12-11T13:25:52.501Z,9.50
2022-12-11T13:28:39.846Z,9.68
2022-12-11T13:31:19.114Z,9.05
2022-12-11T13:33:51.574Z,14.90
2022-12-11T13:36:24.118Z,11.52
2022-12-11T13:39:05.796Z,9.82
2022-12-11T13:41:35.665Z,9.45
2022-12-11T13:44:07.129Z,8.68
2022-12-11T13:46:36.064Z,9.20
2022-12-11T13:49:06.957Z,9.50
2022-12-11T13:51:38.072Z,9.20
2022-12-11T13:54:16.995Z,8.93
2022-12-11T13:57:35.355Z,8.95
2022-12-11T14:00:19.906Z,10.27
2022-12-11T14:02:46.855Z,9.47
2022-12-11T14:05:15.697Z,10.07
2022-12-11T14:07:50.548Z,10.90
2022-12-11T14:10:27.454Z,10.23
2022-12-11T14:12:59.286Z,10.48
2022-12-11T14:15:27.982Z,10.52
2022-12-11T14:17:56.465Z,9.98
2022-12-11T14:20:26.352Z,10.30
2022-12-11T14:22:53.390Z,10.85
2022-12-11T14:25:27.066Z,10.20
2022-12-11T14:27:57.349Z,10.50
2022-12-11T14:30:43.411Z,10.82
2022-12-11T14:33:16.357Z,10.85
2022-12-11T14:35:44.743Z,11.13
2022-12-11T14:38:18.355Z,11.38
2022-12-11T14:40:49.848Z,11.15
2022-12-11T14:43:31.004Z,10.88
2022-12-11T14:46:06.717Z,10.93
2022-12-11T14:48:38.515Z,9.90
2022-12-11T14:51:09.137Z,11.03
2022-12-11T14:53:42.809Z,11.02
2022-12-11T14:56:18.042Z,10.95
2022-12-11T14:58:59.305Z,10.48
2022-12-11T15:01:29.530Z,10.60
2022-12-11T15:04:15.114Z,10.40
2022-12-11T15:06:56.660Z,10.93
2022-12-11T15:09:26.906Z,10.83
2022-12-11T15:11:56.446Z,11.65
2022-12-11T15:14:24.316Z,11.15
2022-12-11T15:16:54.972Z,11.07
2022-12-11T15:19:25.028Z,10.45
2022-12-11T15:22:09.554Z,10.23
2022-12-11T15:24:40.858Z,11.07
2022-12-11T15:27:33.993Z,11.43
2022-12-11T15:30:00.806Z,10.77
2022-12-11T15:32:27.632Z,10.75
2022-12-11T15:34:56.930Z,10.13
2022-12-11T15:37:36.661Z,11.02
2022-12-11T15:40:05.913Z,11.68
2022-12-11T15:42:36.431Z,11.02
2022-12-11T15:45:06.610Z,10.75
2022-12-11T15:47:34.153Z,11.48
2022-12-11T15:50:17.557Z,10.45
2022-12-11T15:52:45.060Z,11.50
2022-12-11T15:55:12.569Z,10.50
2022-12-11T15:57:45.304Z,10.77
2022-12-11T16:00:18.857Z,10.68
2022-12-11T16:02:46.820Z,11.48
2022-12-11T16:05:14.829Z,10.60
2022-12-11T16:07:42.072Z,9.43
2022-12-11T16:10:19.150Z,10.63
2022-12-11T16:13:00.326Z,9.98
2022-12-11T16:15:27.633Z,10.97
2022-12-11T16:18:14.396Z,10.73
2022-12-11T16:20:42.743Z,11.02
2022-12-11T16:23:10.300Z,16.33
2022-12-11T16:25:39.109Z,12.50
2022-12-11T16:28:07.112Z,10.93
2022-12-11T16:30:38.999Z,11.33
2022-12-11T16:33:12.748Z,10.97
2022-12-11T16:35:43.585Z,11.90
2022-12-11T16:38:10.981Z,12.20
2022-12-11T16:40:41.821Z,11.85
2022-12-11T16:46:12.472Z,12.63
2022-12-11T16:48:39.454Z,14.07
2022-12-11T16:54:10.707Z,12.40
2022-12-11T16:56:38.675Z,13.23
2022-12-11T16:59:05.894Z,14.00
2022-12-11T17:01:33.588Z,12.57
2022-12-11T17:04:00.861Z,10.15
2022-12-11T17:06:28.554Z,11.40
2022-12-11T17:08:58.663Z,11.00
2022-12-11T17:11:26.623Z,10.98
2022-12-11T17:14:04.088Z,9.52
2022-12-11T17:16:34.773Z,10.43
2022-12-11T17:19:07.449Z,9.57
2022-12-11T17:21:34.508Z,9.65
2022-12-11T17:24:01.535Z,10.35
2022-12-11T17:26:50.974Z,9.60
2022-12-11T17:29:18.190Z,10.07
2022-12-11T17:31:45.468Z,10.82
2022-12-11T17:34:12.755Z,10.45
2022-12-11T17:36:39.666Z,11.23
2022-12-11T17:39:06.480Z,11.05
2022-12-11T17:41:33.525Z,10.68
2022-12-11T17:44:00.613Z,10.38
2022-12-11T17:46:37.144Z,11.18
2022-12-11T17:49:10.947Z,12.40
2022-12-11T17:51:38.018Z,12.32
2022-12-11T17:54:04.882Z,11.90
2022-12-11T17:56:35.027Z,11.60
2022-12-11T17:59:16.894Z,11.05
2022-12-11T18:01:46.841Z,10.77
2022-12-11T18:04:17.855Z,10.98
2022-12-11T18:06:54.017Z,10.10
2022-12-11T18:09:25.725Z,11.43
2022-12-11T18:11:57.427Z,12.38
2022-12-11T18:14:26.308Z,11.45
2022-12-11T18:19:46.186Z,10.65
2022-12-11T18:22:13.243Z,10.95
2022-12-11T18:24:40.939Z,12.32
2022-12-11T18:27:11.197Z,11.30
2022-12-11T18:29:38.410Z,10.80
2022-12-11T18:32:05.307Z,11.68
2022-12-11T18:34:32.277Z,11.65
2022-12-11T18:36:59.486Z,11.05
2022-12-11T18:39:26.503Z,11.63
2022-12-11T18:42:16.565Z,10.70
2022-12-11T18:44:40.408Z,11.00
2022-12-11T18:47:07.295Z,11.32
2022-12-11T18:49:34.209Z,11.13
2022-12-11T18:52:01.117Z,10.60
2022-12-11T18:54:29.528Z,10.52
2022-12-11T18:56:57.232Z,11.32
2022-12-11T18:59:24.307Z,12.48
2022-12-11T19:01:51.238Z,12.38
2022-12-11T19:04:18.876Z,11.23
2022-12-11T19:06:47.846Z,12.18
2022-12-11T19:09:15.239Z,11.50
2022-12-11T19:11:42.278Z,12.32
2022-12-11T19:14:09.732Z,10.45
2022-12-11T19:16:43.816Z,10.38
2022-12-11T19:19:19.834Z,10.77
2022-12-11T19:21:47.282Z,10.77
2022-12-11T19:24:20.430Z,10.77
2022-12-11T19:26:47.927Z,10.13
2022-12-11T19:29:27.641Z,9.45
2022-12-11T19:31:55.813Z,10.77
2022-12-11T19:34:23.596Z,10.52
2022-12-11T19:36:50.769Z,10.85
2022-12-11T19:39:19.900Z,10.45
2022-12-11T19:42:01.744Z,11.10
2022-12-11T19:47:46.505Z,10.93
2022-12-11T19:50:13.447Z,10.73
2022-12-11T19:52:45.805Z,10.05
2022-12-11T19:55:15.224Z,11.00
2022-12-11T19:57:42.326Z,12.13
2022-12-11T20:00:09.720Z,11.50
2022-12-11T20:02:39.165Z,11.50
2022-12-11T20:05:06.885Z,10.98
2022-12-11T20:07:33.907Z,11.77
2022-12-11T20:10:06.494Z,12.93
2022-12-11T20:12:34.609Z,11.07
2022-12-11T20:15:06.320Z,11.18
2022-12-11T20:18:03.532Z,10.40
2022-12-11T20:20:33.709Z,10.13
2022-12-11T20:23:01.112Z,10.38
2022-12-11T20:25:28.384Z,10.05
2022-12-11T20:28:00.662Z,11.27
2022-12-11T20:30:27.560Z,10.90
2022-12-11T20:32:54.421Z,10.82
2022-12-11T20:35:21.548Z,10.70
2022-12-11T20:37:48.408Z,11.25
2022-12-11T20:40:15.419Z,11.02
2022-12-11T20:42:42.802Z,11.68
2022-12-11T20:45:10.893Z,11.82
2022-12-11T20:47:38.496Z,12.18
2022-12-11T20:50:07.176Z,11.15
2022-12-11T20:52:36.651Z,10.48
2022-12-11T20:55:04.988Z,11.20
2022-12-11T20:57:32.649Z,11.00
2022-12-11T20:59:59.514Z,10.90
2022-12-11T21:02:26.503Z,10.75
2022-12-11T21:04:53.548Z,10.82
2022-12-11T21:07:22.484Z,11.45
2022-12-11T21:09:49.589Z,11.32
2022-12-11T21:12:17.547Z,11.13
2022-12-11T21:14:45.666Z,11.68
2022-12-11T21:17:14.021Z,10.77
2022-12-11T21:19:43.121Z,11.35
2022-12-11T21:22:10.390Z,11.43
2022-12-11T21:24:37.448Z,10.63
2022-12-11T21:27:04.635Z,11.32
2022-12-11T21:29:31.668Z,11.55
2022-12-11T21:31:58.760Z,11.18
2022-12-11T21:34:26.505Z,11.15
2022-12-11T21:36:56.926Z,11.38
2022-12-11T21:39:25.421Z,11.18
2022-12-11T21:41:53.055Z,11.85
2022-12-11T21:47:09.942Z,11.77
2022-12-11T21:49:37.545Z,11.25
2022-12-11T21:52:15.622Z,10.93
2022-12-11T21:54:45.977Z,11.18
2022-12-11T21:57:12.893Z,11.77
2022-12-11T21:59:39.661Z,12.45
2022-12-11T22:02:06.671Z,12.70
2022-12-11T22:04:33.840Z,11.77
2022-12-11T22:07:00.958Z,10.48
2022-12-11T22:09:27.830Z,10.27
2022-12-11T22:11:58.316Z,10.27
2022-12-11T22:14:25.736Z,9.85
2022-12-11T22:16:52.542Z,10.15
2022-12-11T22:19:19.381Z,10.70
2022-12-11T22:21:46.569Z,11.15
2022-12-11T22:24:14.216Z,10.07
2022-12-11T22:26:41.005Z,11.52
2022-12-11T22:29:08.025Z,11.05
2022-12-11T22:31:34.881Z,10.50
2022-12-11T22:34:01.748Z,10.07
2022-12-11T22:36:28.595Z,10.13
2022-12-11T22:38:55.606Z,9.73
2022-12-11T22:41:28.423Z,10.45
2022-12-11T22:43:55.825Z,10.18
2022-12-11T22:46:25.062Z,10.20
2022-12-11T22:48:52.170Z,10.38
2022-12-11T22:51:19.410Z,10.27
2022-12-11T22:53:46.321Z,9.65
2022-12-11T22:56:13.899Z,10.43
2022-12-11T22:58:41.051Z,10.10
2022-12-11T23:01:12.965Z,9.63
2022-12-11T23:03:39.794Z,9.82
2022-12-11T23:06:12.237Z,10.20
2022-12-11T23:08:39.782Z,9.57
2022-12-11T23:11:12.040Z,9.93
2022-12-11T23:13:40.048Z,10.75
2022-12-11T23:16:08.454Z,9.02
2022-12-11T23:18:35.394Z,9.73
2022-12-11T23:21:02.495Z,10.18
2022-12-11T23:23:29.240Z,9.82
2022-12-11T23:25:56.780Z,9.73
2022-12-11T23:28:23.764Z,10.15
2022-12-11T23:30:50.811Z,9.65
2022-12-11T23:33:17.719Z,9.32
2022-12-11T23:35:45.450Z,9.32
2022-12-11T23:38:12.281Z,10.60
2022-12-11T23:40:39.537Z,9.88
2022-12-11T23:43:10.282Z,9.90
2022-12-11T23:45:37.079Z,9.32
2022-12-11T23:48:03.951Z,8.85
2022-12-11T23:50:32.935Z,9.30
2022-12-11T23:52:59.835Z,8.55
2022-12-11T23:55:29.390Z,8.75
2022-12-11T23:57:58.123Z,9.98
